Time;durP1;ratioP1;P1;durP2;ratioP2;P2;SDS_P1;SDS_P2;PMS_P1;PMS_P2;Temp;Humidity;BMP_temperature;BMP_pressure;BME280_temperature;BME280_humidity;BME280_pressure;Samples;Min_cycle;Max_cycle;Signal;HPM_P1;HPM_P2
2021/04/27 00:00:47;;;;;;;0.43;0.43;;;;;;;1.76;51.65;101290.44;5074958;28;20311;-79
2021/04/27 00:03:14;;;;;;;2.17;0.57;;;;;;;1.82;51.04;101300.88;5087191;28;20212;-78
2021/04/27 00:05:42;;;;;;;0.57;0.50;;;;;;;1.78;51.17;101296.56;5085356;28;20226;-78
2021/04/27 00:08:09;;;;;;;0.20;0.20;;;;;;;1.65;51.27;101284.53;5077714;28;20229;-78
2021/04/27 00:10:37;;;;;;;0.40;0.40;;;;;;;1.68;51.61;101301.19;5078071;28;20208;-78
2021/04/27 00:13:05;;;;;;;0.50;0.50;;;;;;;1.52;51.22;101282.13;5082943;28;20211;-78
2021/04/27 00:15:32;;;;;;;1.60;0.90;;;;;;;1.62;51.44;101296.03;5085128;28;20225;-78
2021/04/27 00:18:00;;;;;;;0.90;0.63;;;;;;;1.58;51.45;101297.03;5081101;28;20754;-78
2021/04/27 00:20:27;;;;;;;0.90;0.60;;;;;;;1.53;51.32;101297.13;5082062;28;20293;-78
2021/04/27 00:22:55;;;;;;;0.60;0.60;;;;;;;1.43;51.35;101282.34;5078239;28;20200;-78
2021/04/27 00:25:23;;;;;;;2.33;0.70;;;;;;;1.51;51.26;101290.97;5084886;28;20303;-78
2021/04/27 00:27:52;;;;;;;1.37;1.00;;;;;;;1.50;51.24;101289.22;5080065;28;20705;-78
2021/04/27 00:30:22;;;;;;;1.13;0.70;;;;;;;1.41;51.31;101277.97;5079619;28;20199;-78
2021/04/27 00:32:51;;;;;;;1.17;0.70;;;;;;;1.41;51.43;101289.44;5086059;28;20214;-78
2021/04/27 00:35:18;;;;;;;3.03;0.60;;;;;;;0.96;51.35;101219.88;5080119;28;20226;-78
2021/04/27 00:37:46;;;;;;;1.30;0.60;;;;;;;1.28;51.86;101284.44;5085237;28;20742;-78
2021/04/27 00:40:15;;;;;;;2.20;0.70;;;;;;;1.28;51.73;101287.09;5079251;28;20204;-79
2021/04/27 00:42:45;;;;;;;1.10;0.53;;;;;;;1.04;52.05;101249.66;5086054;28;20536;-78
2021/04/27 00:45:16;;;;;;;0.77;0.60;;;;;;;1.13;52.44;101275.91;5084048;28;20210;-79
2021/04/27 00:47:44;;;;;;;0.57;0.57;;;;;;;1.22;52.14;101280.13;5091494;28;20214;-78
2021/04/27 00:50:15;;;;;;;0.40;0.40;;;;;;;1.20;52.05;101279.28;5077935;28;20661;-78
2021/04/27 00:52:45;;;;;;;1.03;0.53;;;;;;;1.08;53.11;101284.84;5076418;28;20195;-78
2021/04/27 00:55:14;;;;;;;0.50;0.50;;;;;;;0.98;53.68;101283.28;5072750;28;20201;-78
2021/04/27 00:57:41;;;;;;;0.60;0.60;;;;;;;0.90;52.99;101276.38;5085743;28;20201;-78
2021/04/27 01:00:11;;;;;;;1.20;0.60;;;;;;;0.89;53.68;101281.69;5078449;28;20205;-78
2021/04/27 01:02:39;;;;;;;0.70;0.70;;;;;;;0.91;53.07;101287.81;5085670;28;20204;-78
2021/04/27 01:05:09;;;;;;;0.37;0.37;;;;;;;0.73;53.41;101257.34;5087423;28;20215;-78
2021/04/27 01:07:44;;;;;;;1.83;0.60;;;;;;;0.85;53.80;101283.50;5074407;28;20234;-78
2021/04/27 01:10:14;;;;;;;1.10;0.60;;;;;;;0.86;53.38;101279.97;5087654;28;20217;-78
2021/04/27 01:12:48;;;;;;;1.33;0.50;;;;;;;0.89;53.29;101286.97;5080156;28;20858;-78
2021/04/27 01:15:18;;;;;;;1.20;0.80;;;;;;;0.93;52.91;101280.75;5079811;28;20276;-79
2021/04/27 01:17:48;;;;;;;0.90;0.70;;;;;;;0.32;53.38;101165.66;5090212;28;20196;-78
2021/04/27 01:20:19;;;;;;;0.67;0.67;;;;;;;0.96;53.34;101274.53;5080284;28;20210;-78
2021/04/27 01:23:35;;;;;;;4.93;0.50;;;;;;;0.92;53.04;101277.22;5080281;28;20211;-78
2021/04/27 01:26:04;;;;;;;0.70;0.60;;;;;;;0.87;53.04;101264.97;5069238;28;20257;-79
2021/04/27 01:28:41;;;;;;;0.73;0.73;;;;;;;0.72;53.30;101250.31;5078631;28;20204;-79
2021/04/27 01:31:09;;;;;;;0.80;0.67;;;;;;;0.80;53.78;101271.28;5071041;28;20257;-78
2021/04/27 01:33:37;;;;;;;1.27;0.70;;;;;;;0.32;53.12;101193.84;5091401;28;20198;-79
2021/04/27 01:36:06;;;;;;;1999.90;999.90;;;;;;;0.24;53.38;101176.34;5091279;28;20209;-78
2021/04/27 01:38:43;;;;;;;172.70;59.57;;;;;;;0.69;53.58;101250.38;5074861;28;20669;-78
2021/04/27 01:41:11;;;;;;;16.13;6.00;;;;;;;0.77;53.11;101266.94;5083607;28;20602;-79
2021/04/27 01:43:43;;;;;;;4.00;2.23;;;;;;;0.76;54.34;101270.47;5081415;28;20207;-78
2021/04/27 01:46:11;;;;;;;6.60;3.30;;;;;;;0.79;53.67;101269.56;5090717;28;20301;-78
2021/04/27 01:48:40;;;;;;;2.93;1.70;;;;;;;0.82;53.42;101272.13;5091478;28;20199;-78
2021/04/27 01:51:11;;;;;;;2.90;1.70;;;;;;;0.83;53.55;101266.81;5078584;28;20260;-78
2021/04/27 01:53:57;;;;;;;3.07;1.50;;;;;;;0.80;53.36;101258.06;5080187;28;20556;-78
2021/04/27 01:56:27;;;;;;;1.07;0.90;;;;;;;0.77;53.19;101251.09;5081515;28;20542;-78
2021/04/27 01:58:55;;;;;;;2.67;1.30;;;;;;;0.88;53.28;101270.22;5081375;28;20621;-78
2021/04/27 02:01:34;;;;;;;4.47;1.40;;;;;;;0.80;53.01;101258.06;5090556;28;20208;-78
2021/04/27 02:04:01;;;;;;;0.53;0.40;;;;;;;0.67;53.66;101249.53;5088663;28;20288;-78
2021/04/27 02:06:55;;;;;;;0.80;0.80;;;;;;;0.85;53.28;101272.06;5068986;28;20208;-78
2021/04/27 02:09:25;;;;;;;0.50;0.50;;;;;;;0.54;53.30;101216.28;5083614;28;20259;-78
2021/04/27 02:12:04;;;;;;;0.80;0.80;;;;;;;0.84;53.14;101263.28;5076330;28;20211;-78
2021/04/27 02:14:32;;;;;;;0.47;0.37;;;;;;;0.81;53.53;101265.97;5085171;28;20222;-79
2021/04/27 02:17:06;;;;;;;0.30;0.30;;;;;;;0.80;53.71;101264.22;5089186;28;20590;-79
2021/04/27 02:19:39;;;;;;;0.50;0.50;;;;;;;0.79;53.21;101264.25;5085111;28;20236;-79
2021/04/27 02:22:27;;;;;;;0.93;0.60;;;;;;;0.80;53.04;101258.94;5089410;28;20262;-79
2021/04/27 02:25:14;;;;;;;0.47;0.47;;;;;;;0.69;53.40;101241.56;5086846;28;20215;-79
2021/04/27 02:27:42;;;;;;;0.60;0.60;;;;;;;0.85;53.23;101262.38;5087509;28;20214;-79
2021/04/27 02:30:15;;;;;;;0.50;0.50;;;;;;;0.86;53.16;101256.19;5085710;28;20185;-78
2021/04/27 02:32:44;;;;;;;1.67;0.60;;;;;;;0.86;53.17;101257.94;5083015;28;20247;-79
2021/04/27 02:35:14;;;;;;;0.43;0.43;;;;;;;0.87;52.81;101255.28;5085691;28;20186;-79
2021/04/27 02:37:43;;;;;;;0.57;0.50;;;;;;;0.88;53.10;101253.50;5089731;28;20311;-79
2021/04/27 02:40:21;;;;;;;1.63;0.37;;;;;;;0.87;52.79;101255.28;5083813;28;20225;-78
2021/04/27 02:42:50;;;;;;;0.60;0.60;;;;;;;0.57;52.77;101208.31;5070497;28;20205;-78
2021/04/27 02:45:31;;;;;;;0.40;0.40;;;;;;;0.80;52.77;101243.09;5083454;28;20234;-78
2021/04/27 02:48:21;;;;;;;0.50;0.50;;;;;;;0.60;52.86;101216.16;5088925;28;20208;-79
2021/04/27 02:50:52;;;;;;;0.27;0.27;;;;;;;0.85;53.18;101257.06;5080782;28;20202;-77
2021/04/27 02:53:20;;;;;;;0.60;0.60;;;;;;;0.74;52.73;101231.78;5073676;28;20434;-76
2021/04/27 02:55:49;;;;;;;2.63;0.43;;;;;;;0.84;53.30;101257.13;5080966;28;20193;-76
2021/04/27 02:58:19;;;;;;;0.40;0.40;;;;;;;0.70;53.19;101232.75;5076443;28;20229;-76
2021/04/27 03:00:54;;;;;;;1.47;0.80;;;;;;;0.70;53.18;101238.03;5078684;28;20183;-76
2021/04/27 03:03:22;;;;;;;0.40;0.40;;;;;;;0.76;53.37;101251.13;5076656;28;20227;-75
2021/04/27 03:05:50;;;;;;;1.23;1.03;;;;;;;0.64;53.16;101232.88;5076536;28;20302;-77
2021/04/27 03:08:17;;;;;;;0.30;0.30;;;;;;;0.58;53.42;101228.53;5076665;28;20292;-76
2021/04/27 03:10:46;;;;;;;0.57;0.33;;;;;;;0.25;53.19;101170.16;5079046;28;20201;-77
2021/04/27 03:13:13;;;;;;;0.73;0.47;;;;;;;0.78;53.48;101259.88;5094230;28;20376;-77
2021/04/27 03:15:50;;;;;;;1.63;0.53;;;;;;;0.81;53.62;101258.03;5080517;28;20216;-77
2021/04/27 03:18:18;;;;;;;0.40;0.40;;;;;;;0.49;54.03;101200.53;5079815;28;20220;-77
2021/04/27 03:20:46;;;;;;;0.63;0.30;;;;;;;0.81;53.51;101247.47;5086571;28;20227;-77
2021/04/27 03:23:23;;;;;;;0.70;0.50;;;;;;;0.74;54.12;101242.34;5089895;28;20572;-77
2021/04/27 03:25:50;;;;;;;1.20;1.10;;;;;;;0.71;53.90;101253.84;5084826;28;20212;-77
2021/04/27 03:28:24;;;;;;;15.10;8.37;;;;;;;0.72;53.28;101250.31;5086961;28;20202;-77
2021/04/27 03:30:56;;;;;;;2.43;2.03;;;;;;;0.75;53.42;101249.38;5085755;28;20198;-77
2021/04/27 03:33:26;;;;;;;0.90;0.90;;;;;;;0.79;53.83;101245.75;5086382;28;20212;-77
2021/04/27 03:35:56;;;;;;;1.40;0.97;;;;;;;0.76;54.45;101245.81;5087906;28;20201;-77
2021/04/27 03:38:23;;;;;;;1.20;1.10;;;;;;;0.59;53.63;101214.44;5090716;28;20259;-77
2021/04/27 03:40:51;;;;;;;0.70;0.70;;;;;;;0.63;53.71;101204.69;5076236;28;20256;-77
2021/04/27 03:43:23;;;;;;;2.93;0.77;;;;;;;0.95;53.58;101246.34;5078734;28;20212;-77
2021/04/27 03:45:51;;;;;;;0.40;0.40;;;;;;;0.91;53.72;101235.81;5081846;28;20225;-78
2021/04/27 03:48:21;;;;;;;0.73;0.50;;;;;;;0.99;54.06;101238.31;5077335;28;20294;-78
2021/04/27 03:50:57;;;;;;;1.47;0.67;;;;;;;1.13;53.66;101248.59;5081067;28;20690;-78
2021/04/27 03:53:48;;;;;;;0.43;0.43;;;;;;;1.22;53.82;101243.09;5090594;28;20208;-78
2021/04/27 03:56:29;;;;;;;0.83;0.70;;;;;;;1.26;54.17;101247.44;5077899;28;20199;-78
2021/04/27 03:58:59;;;;;;;0.47;0.40;;;;;;;1.29;54.06;101241.22;5105799;27;20295;-78
2021/04/27 04:01:29;;;;;;;2.80;2.60;;;;;;;1.40;53.93;101255.94;5080183;28;20287;-78
2021/04/27 04:03:56;;;;;;;0.53;0.53;;;;;;;1.43;53.98;101245.28;5084178;28;20203;-79
2021/04/27 04:06:24;;;;;;;0.80;0.50;;;;;;;1.42;54.29;101235.63;5082870;28;20226;-81
2021/04/27 04:08:52;;;;;;;0.50;0.50;;;;;;;1.59;53.73;101244.97;5087725;28;20256;-79
2021/04/27 04:11:24;;;;;;;0.50;0.50;;;;;;;1.70;53.77;101242.94;5084043;28;20290;-78
2021/04/27 04:13:51;;;;;;;0.57;0.57;;;;;;;1.84;53.62;101243.50;5084869;28;20591;-78
2021/04/27 04:16:19;;;;;;;8.10;0.70;;;;;;;1.95;53.77;101246.75;5090534;28;20182;-78
2021/04/27 04:18:50;;;;;;;2.00;0.60;;;;;;;2.06;53.73;101255.28;5090983;28;20219;-79
2021/04/27 04:21:18;;;;;;;0.37;0.37;;;;;;;2.13;54.20;101253.34;5082886;28;20199;-79
2021/04/27 04:23:53;;;;;;;4.97;0.90;;;;;;;2.20;54.30;101246.13;5085513;28;20202;-78
2021/04/27 04:26:21;;;;;;;0.97;0.60;;;;;;;2.24;54.66;101251.31;5087455;28;20223;-78
2021/04/27 04:29:09;;;;;;;0.73;0.60;;;;;;;2.36;54.31;101251.00;5089955;28;20655;-78
2021/04/27 04:31:41;;;;;;;0.43;0.43;;;;;;;2.34;55.71;101241.34;5090552;28;20200;-78
2021/04/27 04:34:15;;;;;;;4.07;0.57;;;;;;;2.58;55.17;101255.75;5090462;28;20199;-79
2021/04/27 04:37:00;;;;;;;0.57;0.57;;;;;;;2.62;54.78;101230.88;5078031;28;20231;-78
2021/04/27 04:39:57;;;;;;;0.80;0.40;;;;;;;2.83;56.50;101240.91;5061210;28;20553;-78
2021/04/27 04:42:44;;;;;;;0.90;0.60;;;;;;;2.93;56.79;101239.72;5080430;28;20736;-78
2021/04/27 04:45:43;;;;;;;0.73;0.50;;;;;;;3.25;55.80;101248.53;5050032;28;20230;-78
2021/04/27 04:48:29;;;;;;;1.23;0.60;;;;;;;3.42;56.74;101264.84;5078490;28;20345;-78
2021/04/27 04:51:22;;;;;;;0.73;0.60;;;;;;;3.67;55.72;101259.63;5074809;28;20205;-78
2021/04/27 04:53:56;;;;;;;0.30;0.30;;;;;;;3.68;55.96;101221.56;5078098;28;20564;-78
2021/04/27 04:56:24;;;;;;;0.80;0.80;;;;;;;3.99;55.90;101256.84;5079117;28;20214;-78
2021/04/27 04:58:52;;;;;;;3.90;0.70;;;;;;;4.14;55.71;101259.91;5081023;28;20247;-78
2021/04/27 05:01:20;;;;;;;0.83;0.60;;;;;;;4.34;55.89;101254.81;5078774;28;20668;-78
2021/04/27 05:04:12;;;;;;;0.60;0.60;;;;;;;4.38;54.63;101219.22;5078699;28;20288;-78
2021/04/27 05:07:02;;;;;;;0.73;0.60;;;;;;;4.47;55.38;101229.53;5077396;28;20333;-77
2021/04/27 05:09:48;;;;;;;0.70;0.70;;;;;;;4.67;54.83;101256.31;5075120;28;20240;-78
2021/04/27 05:12:25;;;;;;;1.33;0.70;;;;;;;4.72;55.98;101247.31;5074848;28;20290;-75
2021/04/27 05:15:11;;;;;;;1.13;0.63;;;;;;;4.76;54.97;101259.56;5074157;28;20205;-76
2021/04/27 05:17:38;;;;;;;0.40;0.40;;;;;;;4.65;54.57;101217.41;5079792;28;20189;-77
2021/04/27 05:20:08;;;;;;;1.43;0.50;;;;;;;4.91;54.86;101256.38;5076343;28;20203;-78
2021/04/27 05:22:45;;;;;;;1.53;0.80;;;;;;;4.97;54.42;101256.16;5073660;28;20828;-78
2021/04/27 05:25:15;;;;;;;1.13;0.80;;;;;;;5.02;54.36;101253.31;5077737;28;20200;-78
2021/04/27 05:27:57;;;;;;;0.63;0.63;;;;;;;5.08;53.52;101259.28;5075593;28;20196;-77
2021/04/27 05:30:25;;;;;;;0.60;0.60;;;;;;;5.12;53.21;101255.56;5079481;28;20639;-77
2021/04/27 05:32:52;;;;;;;0.50;0.50;;;;;;;4.98;52.94;101224.16;5080523;28;20209;-77
2021/04/27 05:35:19;;;;;;;0.67;0.67;;;;;;;5.33;52.53;101253.91;5077318;28;20216;-77
2021/04/27 05:37:46;;;;;;;0.60;0.60;;;;;;;5.50;52.59;101253.25;5079280;28;20205;-76
2021/04/27 05:40:14;;;;;;;0.60;0.57;;;;;;;5.33;51.48;101205.09;5074439;28;20231;-76
2021/04/27 05:42:41;;;;;;;0.57;0.57;;;;;;;5.71;51.24;101246.22;5075817;28;20247;-76
2021/04/27 05:45:11;;;;;;;0.47;0.47;;;;;;;5.86;51.52;101254.50;5068921;28;20208;-76
2021/04/27 05:47:38;;;;;;;1.17;0.70;;;;;;;6.01;51.04;101252.16;5075633;28;20205;-77
2021/04/27 05:50:06;;;;;;;1.07;0.50;;;;;;;5.92;50.27;101237.41;5074521;28;20559;-76
2021/04/27 05:52:34;;;;;;;0.50;0.50;;;;;;;6.04;50.21;101254.69;5072948;28;20278;-76
2021/04/27 05:55:01;;;;;;;0.40;0.40;;;;;;;6.16;51.21;101254.22;5081431;28;20202;-75
2021/04/27 05:57:29;;;;;;;1.23;0.50;;;;;;;6.22;50.75;101241.47;5080496;28;20217;-76
2021/04/27 05:59:56;;;;;;;3.63;0.70;;;;;;;6.37;49.79;101249.75;5074077;28;20259;-76
2021/04/27 06:02:24;;;;;;;4.23;3.83;;;;;;;6.59;49.71;101247.03;5113953;27;20197;-75
2021/04/27 06:04:53;;;;;;;259.87;120.20;;;;;;;6.78;49.70;101248.00;5075553;28;20194;-76
2021/04/27 06:07:20;;;;;;;14.83;7.70;;;;;;;6.99;50.17;101244.34;5079410;28;20226;-76
2021/04/27 06:09:47;;;;;;;2.87;2.23;;;;;;;7.14;50.41;101248.16;5075311;28;20228;-76
2021/04/27 06:12:15;;;;;;;4.67;1.37;;;;;;;7.29;49.09;101243.88;5079286;28;20210;-76
2021/04/27 06:14:42;;;;;;;1.40;1.30;;;;;;;7.48;48.94;101253.66;5077749;28;20202;-77
2021/04/27 06:17:10;;;;;;;1.47;1.30;;;;;;;7.65;48.47;101250.22;5075338;28;20188;-77
2021/04/27 06:19:40;;;;;;;0.60;0.60;;;;;;;7.81;48.00;101246.78;5080118;28;20209;-79
2021/04/27 06:22:07;;;;;;;0.70;0.70;;;;;;;7.96;47.58;101246.94;5080152;28;20196;-78
2021/04/27 06:24:34;;;;;;;0.63;0.63;;;;;;;8.11;46.63;101247.97;5075130;28;20211;-78
2021/04/27 06:27:17;;;;;;;0.50;0.50;;;;;;;8.10;46.33;101219.50;5077829;28;20313;-77
2021/04/27 06:29:48;;;;;;;0.50;0.50;;;;;;;8.36;44.62;101240.47;5072915;28;20721;-74
2021/04/27 06:32:15;;;;;;;0.50;0.40;;;;;;;8.17;44.48;101190.63;5073762;28;20202;-76
2021/04/27 06:34:44;;;;;;;0.60;0.60;;;;;;;8.57;45.86;101230.50;5072294;28;20191;-78
2021/04/27 06:37:11;;;;;;;0.53;0.40;;;;;;;8.80;45.67;101247.16;5072616;28;20669;-78
2021/04/27 06:39:38;;;;;;;0.70;0.70;;;;;;;8.92;45.84;101238.50;5071216;28;20235;-77
2021/04/27 06:42:06;;;;;;;0.70;0.70;;;;;;;9.07;45.53;101239.47;5076309;28;20208;-76
2021/04/27 06:44:34;;;;;;;0.93;0.70;;;;;;;9.24;45.43;101244.81;5075655;28;20677;-76
2021/04/27 06:47:02;;;;;;;0.40;0.40;;;;;;;9.39;45.35;101238.59;5074534;28;20452;-76
2021/04/27 06:49:29;;;;;;;0.50;0.50;;;;;;;9.56;43.18;101248.41;5069454;28;20281;-77
2021/04/27 06:51:58;;;;;;;0.60;0.53;;;;;;;9.66;42.99;101238.91;5078885;28;20212;-75
2021/04/27 06:54:25;;;;;;;1.10;1.00;;;;;;;9.68;43.63;101226.25;5081791;28;20236;-76
2021/04/27 06:56:52;;;;;;;0.70;0.70;;;;;;;9.83;43.44;101241.50;5074477;28;20402;-76
2021/04/27 06:59:39;;;;;;;1.20;0.87;;;;;;;9.99;42.56;101238.81;5098263;28;20314;-77
2021/04/27 07:02:06;;;;;;;0.50;0.50;;;;;;;10.12;42.78;101242.53;5071787;28;20686;-76
2021/04/27 07:04:40;;;;;;;0.80;0.80;;;;;;;10.23;42.95;101237.41;5078863;28;20215;-77
2021/04/27 07:07:09;;;;;;;0.70;0.70;;;;;;;10.47;41.95;101243.16;5082576;28;20206;-76
2021/04/27 07:09:37;;;;;;;0.90;0.70;;;;;;;10.66;40.83;101234.88;5082004;28;20235;-76
2021/04/27 07:12:06;;;;;;;0.60;0.60;;;;;;;10.81;39.96;101247.38;5080061;28;20200;-78
2021/04/27 07:14:33;;;;;;;1.23;0.73;;;;;;;10.86;39.66;101221.09;5077489;28;20194;-79
2021/04/27 07:17:01;;;;;;;0.53;0.53;;;;;;;11.05;39.95;101238.78;5080490;28;20208;-78
2021/04/27 07:19:28;;;;;;;0.60;0.60;;;;;;;11.19;39.51;101238.78;5081024;28;20535;-78
2021/04/27 07:21:55;;;;;;;0.50;0.50;;;;;;;11.25;39.55;101241.06;5080819;28;20272;-79
2021/04/27 07:24:25;;;;;;;2.70;0.70;;;;;;;11.34;38.17;101224.38;5086267;28;20297;-78
2021/04/27 07:26:52;;;;;;;0.60;0.53;;;;;;;11.51;38.19;101236.75;5079563;28;20298;-77
2021/04/27 07:29:20;;;;;;;0.67;0.67;;;;;;;11.50;37.50;101214.38;5088200;28;20192;-77
2021/04/27 07:31:48;;;;;;;0.60;0.60;;;;;;;11.55;37.61;101213.19;5087661;28;20307;-79
2021/04/27 07:34:16;;;;;;;0.70;0.50;;;;;;;11.73;37.85;101226.34;5084521;28;20300;-78
2021/04/27 07:36:43;;;;;;;0.63;0.60;;;;;;;11.91;36.25;101229.69;5080566;28;20204;-74
2021/04/27 07:39:13;;;;;;;0.87;0.70;;;;;;;11.95;36.87;101225.84;5079748;28;20197;-78
2021/04/27 07:41:43;;;;;;;1.50;0.63;;;;;;;11.94;37.31;101212.47;5077196;28;20877;-77
2021/04/27 07:44:11;;;;;;;0.70;0.70;;;;;;;11.86;36.61;101194.13;5079413;28;20208;-74
2021/04/27 07:46:39;;;;;;;0.77;0.70;;;;;;;11.84;35.97;101177.22;5076278;28;20313;-76
2021/04/27 07:49:07;;;;;;;1.40;0.70;;;;;;;12.20;36.55;101227.75;5079081;28;20278;-72
2021/04/27 07:51:35;;;;;;;0.70;0.70;;;;;;;12.12;36.51;101222.88;5080930;28;20227;-82
2021/04/27 07:54:04;;;;;;;0.70;0.70;;;;;;;12.26;36.63;101234.59;5088322;28;20200;-80
2021/04/27 07:56:33;;;;;;;0.50;0.50;;;;;;;12.10;36.84;101180.88;5090453;28;20209;-80
2021/04/27 07:59:03;;;;;;;2.17;0.60;;;;;;;12.29;36.20;101223.59;5093844;28;20196;-81
2021/04/27 08:01:31;;;;;;;1.13;0.80;;;;;;;12.53;36.01;101221.91;5090534;28;20200;-80
2021/04/27 08:03:59;;;;;;;0.70;0.70;;;;;;;12.58;35.64;101219.81;5077799;28;20193;-80
2021/04/27 08:06:28;;;;;;;0.80;0.80;;;;;;;12.48;35.27;101205.22;5079100;28;20533;-80
2021/04/27 08:09:00;;;;;;;1.87;0.77;;;;;;;12.59;35.20;101183.81;5082272;28;20238;-80
2021/04/27 08:11:31;;;;;;;1.50;0.87;;;;;;;12.58;34.79;101174.00;5075529;28;20585;-79
2021/04/27 08:13:58;;;;;;;0.90;0.70;;;;;;;12.81;34.98;101209.25;5079132;28;20288;-79
2021/04/27 08:16:27;;;;;;;1.57;1.07;;;;;;;13.01;35.15;101224.91;5076081;28;20201;-79
2021/04/27 08:18:55;;;;;;;1.07;0.97;;;;;;;12.97;34.57;101194.59;5078581;28;20682;-79
2021/04/27 08:21:25;;;;;;;1.30;1.20;;;;;;;13.22;33.86;101215.34;5081119;28;20190;-79
2021/04/27 08:23:54;;;;;;;1.27;1.00;;;;;;;13.14;32.70;101225.75;5078767;28;20204;-79
2021/04/27 08:26:23;;;;;;;2.57;1.10;;;;;;;12.95;33.97;101191.16;5079054;28;20694;-78
2021/04/27 08:28:50;;;;;;;2.17;1.40;;;;;;;13.14;33.88;101220.34;5077520;28;20194;-79
2021/04/27 08:31:18;;;;;;;2.20;1.47;;;;;;;13.13;34.64;101193.50;5079635;28;20681;-78
2021/04/27 08:33:46;;;;;;;1.40;1.30;;;;;;;13.07;33.12;101213.66;5074140;28;20252;-77
2021/04/27 08:36:14;;;;;;;1.97;1.40;;;;;;;13.02;31.50;101218.53;5071378;28;20245;-76
2021/04/27 08:38:42;;;;;;;1.23;1.10;;;;;;;13.12;33.75;101192.63;5076624;28;20713;-78
2021/04/27 08:41:09;;;;;;;1.27;1.17;;;;;;;13.49;32.60;101207.09;5110812;27;20588;-78
2021/04/27 08:43:37;;;;;;;1.00;1.00;;;;;;;13.62;32.45;101197.13;5072775;28;20230;-78
2021/04/27 08:46:05;;;;;;;1.77;0.90;;;;;;;13.71;32.41;101200.97;5072650;28;20213;-76
2021/04/27 08:48:33;;;;;;;0.80;0.80;;;;;;;13.75;32.26;101190.81;5076383;28;20198;-78
2021/04/27 08:51:01;;;;;;;0.97;0.70;;;;;;;13.88;31.92;101197.91;5077048;28;20722;-78
2021/04/27 08:53:28;;;;;;;0.60;0.60;;;;;;;13.96;31.72;101190.09;5072768;28;20216;-78
2021/04/27 08:55:58;;;;;;;0.70;0.70;;;;;;;14.14;31.11;101193.25;5074047;28;20272;-77
2021/04/27 08:58:25;;;;;;;0.60;0.60;;;;;;;14.20;29.09;101195.47;5072760;28;20220;-77
2021/04/27 09:00:53;;;;;;;1.20;1.10;;;;;;;13.79;29.17;101193.19;5071011;28;20236;-77
2021/04/27 09:03:21;;;;;;;1.03;0.80;;;;;;;14.08;30.64;101203.63;5073183;28;20574;-76
2021/04/27 09:05:48;;;;;;;2.80;0.90;;;;;;;14.21;30.92;101194.50;5073862;28;20314;-76
2021/04/27 09:08:36;;;;;;;1.07;0.90;;;;;;;14.36;31.18;101195.16;5071784;28;20233;-75
2021/04/27 09:11:24;;;;;;;1.93;1.23;;;;;;;14.40;30.89;101196.69;5072889;28;20208;-77
2021/04/27 09:14:16;;;;;;;1.53;1.23;;;;;;;14.42;30.78;101191.16;5073415;28;20201;-76
2021/04/27 09:16:51;;;;;;;1.40;1.10;;;;;;;14.49;30.95;101193.28;5073141;28;20381;-76
2021/04/27 09:19:39;;;;;;;2.83;1.23;;;;;;;14.46;30.38;101177.31;5071457;28;20200;-75
2021/04/27 09:22:10;;;;;;;2.20;1.10;;;;;;;14.65;30.81;101192.09;5073623;28;20198;-77
2021/04/27 09:24:43;;;;;;;0.87;0.87;;;;;;;14.61;30.78;101153.63;5074265;28;20203;-76
2021/04/27 09:27:25;;;;;;;1.80;1.00;;;;;;;14.74;30.22;101180.59;5067558;28;20352;-76
2021/04/27 09:29:52;;;;;;;1.10;0.90;;;;;;;14.72;30.75;101175.31;5072208;28;20674;-75
2021/04/27 09:32:31;;;;;;;4.73;1.30;;;;;;;14.47;30.66;101146.59;5106660;27;20228;-76
2021/04/27 09:35:15;;;;;;;1.47;1.03;;;;;;;14.85;30.06;101188.72;5074648;28;20198;-75
2021/04/27 09:38:10;;;;;;;0.87;0.87;;;;;;;14.64;31.05;101177.72;5079364;28;20306;-75
2021/04/27 09:40:45;;;;;;;1.70;1.00;;;;;;;14.64;31.54;101152.53;5071479;28;20577;-77
2021/04/27 09:43:13;;;;;;;0.90;0.90;;;;;;;14.87;31.00;101174.06;5078108;28;20209;-75
2021/04/27 09:45:41;;;;;;;1.07;0.80;;;;;;;14.73;30.29;101159.94;5072425;28;20275;-76
2021/04/27 09:48:09;;;;;;;1.13;0.87;;;;;;;14.70;31.01;101162.88;5072298;28;20245;-77
2021/04/27 09:50:37;;;;;;;0.97;0.80;;;;;;;14.86;30.43;101161.53;5072091;28;20204;-76
2021/04/27 09:53:05;;;;;;;0.60;0.60;;;;;;;14.85;30.49;101167.06;5074602;28;20204;-76
2021/04/27 09:55:34;;;;;;;0.80;0.80;;;;;;;14.99;31.38;101169.53;5072452;28;20207;-75
2021/04/27 09:58:04;;;;;;;4.17;1.03;;;;;;;14.92;30.14;101160.19;5074237;28;20558;-76
2021/04/27 10:00:34;;;;;;;0.93;0.93;;;;;;;14.94;30.80;101162.78;5078608;28;20612;-76
2021/04/27 10:03:04;;;;;;;0.70;0.70;;;;;;;15.19;31.12;101166.09;5073856;28;20682;-75
2021/04/27 10:05:32;;;;;;;2.43;0.83;;;;;;;15.07;29.65;101145.47;5078501;28;20291;-76
2021/04/27 10:08:01;;;;;;;2.17;0.90;;;;;;;14.98;30.85;101119.13;5079678;28;20220;-74
2021/04/27 10:10:30;;;;;;;0.90;0.90;;;;;;;15.43;30.84;101154.28;5072304;28;20209;-74
2021/04/27 10:12:59;;;;;;;5.10;0.90;;;;;;;15.28;30.42;101152.81;5080412;28;20736;-74
2021/04/27 10:15:28;;;;;;;0.70;0.70;;;;;;;15.60;30.18;101152.91;5079188;28;20203;-75
2021/04/27 10:17:56;;;;;;;1.30;1.10;;;;;;;15.19;30.70;101112.00;5077845;28;20242;-76
2021/04/27 10:20:24;;;;;;;1.20;0.80;;;;;;;15.65;30.21;101138.03;5079435;28;20671;-76
2021/04/27 10:22:52;;;;;;;0.80;0.80;;;;;;;15.53;29.98;101104.66;5076807;28;20245;-75
2021/04/27 10:25:22;;;;;;;0.70;0.70;;;;;;;15.74;30.36;101139.13;5073828;28;20798;-74
2021/04/27 10:27:54;;;;;;;0.83;0.80;;;;;;;15.40;30.06;101093.16;5091717;28;20224;-75
2021/04/27 10:30:39;;;;;;;0.60;0.60;;;;;;;15.74;31.19;101131.84;5073408;28;20688;-74
2021/04/27 10:33:14;;;;;;;2.97;0.70;;;;;;;15.70;31.03;101141.22;5080385;28;20200;-74
2021/04/27 10:35:44;;;;;;;0.70;0.70;;;;;;;15.76;30.82;101131.72;5077846;28;20200;-76
2021/04/27 10:38:16;;;;;;;0.57;0.57;;;;;;;15.83;31.25;101128.38;5079483;28;20597;-75
2021/04/27 10:40:52;;;;;;;0.87;0.87;;;;;;;15.65;30.10;101129.91;5075648;28;20648;-74
2021/04/27 10:43:43;;;;;;;0.63;0.63;;;;;;;15.77;31.31;101119.91;5079735;28;20663;-74
2021/04/27 10:46:51;;;;;;;1.27;0.60;;;;;;;16.11;30.78;101117.91;5090289;28;20747;-76
2021/04/27 10:49:31;;;;;;;0.83;0.80;;;;;;;16.37;30.00;101116.56;5081592;28;20291;-76
2021/04/27 10:52:00;;;;;;;0.77;0.77;;;;;;;16.66;29.73;101111.34;5083772;28;20205;-76
2021/04/27 10:54:33;;;;;;;0.90;0.80;;;;;;;16.78;29.20;101093.13;5080800;28;20552;-76
2021/04/27 10:57:15;;;;;;;0.60;0.60;;;;;;;16.94;27.74;101101.63;5088138;28;20235;-76
2021/04/27 11:00:02;;;;;;;3.03;0.70;;;;;;;17.07;27.06;101098.69;5079618;28;20226;-75
2021/04/27 11:02:31;;;;;;;0.57;0.57;;;;;;;17.22;28.46;101077.47;5081970;28;20197;-75
2021/04/27 11:05:01;;;;;;;0.47;0.47;;;;;;;17.53;28.51;101103.53;5078370;28;20200;-75
2021/04/27 11:07:37;;;;;;;0.70;0.70;;;;;;;17.69;27.75;101093.00;5079395;28;20241;-75
2021/04/27 11:10:32;;;;;;;0.60;0.60;;;;;;;17.96;28.71;101094.16;5079203;28;20565;-82
2021/04/27 11:13:08;;;;;;;3.83;0.60;;;;;;;18.11;27.09;101084.59;5074825;28;20204;-81
2021/04/27 11:15:36;;;;;;;2.10;0.70;;;;;;;17.92;27.08;101054.69;5078395;28;20196;-81
2021/04/27 11:18:16;;;;;;;1.10;0.80;;;;;;;18.10;27.12;101071.16;5076748;28;20193;-81
2021/04/27 11:20:56;;;;;;;1.00;0.70;;;;;;;18.33;26.89;101067.09;5078125;28;20194;-81
2021/04/27 11:23:56;;;;;;;0.80;0.80;;;;;;;18.38;28.54;101053.06;5072789;28;20208;-81
2021/04/27 11:26:44;;;;;;;0.80;0.80;;;;;;;18.44;27.61;101074.25;5073367;28;20236;-81
2021/04/27 11:29:17;;;;;;;0.60;0.50;;;;;;;18.57;26.96;101044.84;5076013;28;20208;-80
2021/04/27 11:32:04;;;;;;;0.43;0.43;;;;;;;18.88;27.27;101068.09;5077411;28;20200;-83
2021/04/27 11:34:47;;;;;;;0.50;0.50;;;;;;;18.91;27.44;101056.91;5072921;28;20201;-83
2021/04/27 11:37:21;;;;;;;0.70;0.70;;;;;;;19.11;26.58;101045.94;5076682;28;20199;-84
2021/04/27 11:39:48;;;;;;;0.60;0.60;;;;;;;19.17;26.56;101054.34;5077659;28;20613;-83
2021/04/27 11:42:23;;;;;;;0.70;0.70;;;;;;;19.12;27.03;101048.50;5075765;28;20933;-82
2021/04/27 11:44:56;;;;;;;1.03;0.83;;;;;;;19.17;27.17;101048.03;5082591;28;20271;-81
2021/04/27 11:47:24;;;;;;;1.13;0.70;;;;;;;19.17;26.96;101043.47;5078705;28;20236;-81
2021/04/27 11:50:01;;;;;;;0.60;0.60;;;;;;;19.35;26.89;101026.31;5076445;28;20197;-84
2021/04/27 11:52:49;;;;;;;3.23;0.63;;;;;;;19.48;27.23;101037.66;5081992;28;20204;-83